sensor_id;sensor_type;location;lat;lon;timestamp;P1;durP1;ratioP1;P2;durP2;ratioP2
60257;SDS011;46115;44.484;11.314;2023-11-18T00:02:49;4.20;;;1.48;;
60257;SDS011;46115;44.484;11.314;2023-11-18T00:06:52;2.17;;;1.58;;
60257;SDS011;46115;44.484;11.314;2023-11-18T00:10:56;3.30;;;1.75;;
60257;SDS011;46115;44.484;11.314;2023-11-18T00:14:59;2.15;;;1.40;;
60257;SDS011;46115;44.484;11.314;2023-11-18T00:19:04;4.88;;;1.63;;
60257;SDS011;46115;44.484;11.314;2023-11-18T00:23:06;2.65;;;1.60;;
60257;SDS011;46115;44.484;11.314;2023-11-18T00:27:10;3.78;;;1.65;;
60257;SDS011;46115;44.484;11.314;2023-11-18T00:31:16;3.45;;;1.80;;
60257;SDS011;46115;44.484;11.314;2023-11-18T00:35:18;2.63;;;1.80;;
60257;SDS011;46115;44.484;11.314;2023-11-18T00:39:20;3.95;;;1.88;;
60257;SDS011;46115;44.484;11.314;2023-11-18T00:47:27;3.92;;;1.90;;
60257;SDS011;46115;44.484;11.314;2023-11-18T00:51:30;2.78;;;1.80;;
60257;SDS011;46115;44.484;11.314;2023-11-18T00:55:33;2.85;;;1.70;;
60257;SDS011;46115;44.484;11.314;2023-11-18T01:03:43;3.22;;;1.80;;
60257;SDS011;46115;44.484;11.314;2023-11-18T01:07:45;2.42;;;1.60;;
60257;SDS011;46115;44.484;11.314;2023-11-18T01:11:49;2.20;;;1.60;;
60257;SDS011;46115;44.484;11.314;2023-11-18T01:15:53;4.63;;;1.75;;
60257;SDS011;46115;44.484;11.314;2023-11-18T01:19:55;3.25;;;1.80;;
60257;SDS011;46115;44.484;11.314;2023-11-18T01:23:58;2.67;;;1.63;;
60257;SDS011;46115;44.484;11.314;2023-11-18T01:28:00;3.28;;;1.73;;
60257;SDS011;46115;44.484;11.314;2023-11-18T01:32:06;3.95;;;1.70;;
60257;SDS011;46115;44.484;11.314;2023-11-18T01:36:10;3.22;;;1.90;;
60257;SDS011;46115;44.484;11.314;2023-11-18T01:40:13;3.45;;;1.77;;
60257;SDS011;46115;44.484;11.314;2023-11-18T01:44:16;3.30;;;1.77;;
60257;SDS011;46115;44.484;11.314;2023-11-18T01:48:21;2.83;;;1.52;;
60257;SDS011;46115;44.484;11.314;2023-11-18T01:52:27;2.60;;;1.63;;
60257;SDS011;46115;44.484;11.314;2023-11-18T01:56:31;2.78;;;1.85;;
60257;SDS011;46115;44.484;11.314;2023-11-18T02:00:34;3.60;;;1.70;;
60257;SDS011;46115;44.484;11.314;2023-11-18T02:04:40;2.85;;;1.60;;
60257;SDS011;46115;44.484;11.314;2023-11-18T02:08:45;5.13;;;1.70;;
60257;SDS011;46115;44.484;11.314;2023-11-18T02:12:50;2.20;;;1.60;;
60257;SDS011;46115;44.484;11.314;2023-11-18T02:16:59;2.78;;;1.90;;
60257;SDS011;46115;44.484;11.314;2023-11-18T02:21:06;2.40;;;1.65;;
60257;SDS011;46115;44.484;11.314;2023-11-18T02:25:10;3.13;;;1.90;;
60257;SDS011;46115;44.484;11.314;2023-11-18T02:29:20;5.47;;;1.65;;
60257;SDS011;46115;44.484;11.314;2023-11-18T02:33:24;3.45;;;1.70;;
60257;SDS011;46115;44.484;11.314;2023-11-18T02:37:34;2.90;;;1.60;;
60257;SDS011;46115;44.484;11.314;2023-11-18T02:41:38;3.38;;;1.70;;
60257;SDS011;46115;44.484;11.314;2023-11-18T02:45:44;3.35;;;1.65;;
60257;SDS011;46115;44.484;11.314;2023-11-18T02:49:49;3.80;;;1.42;;
60257;SDS011;46115;44.484;11.314;2023-11-18T02:53:57;2.53;;;1.50;;
60257;SDS011;46115;44.484;11.314;2023-11-18T02:58:00;2.80;;;1.60;;
60257;SDS011;46115;44.484;11.314;2023-11-18T03:02:05;3.47;;;1.40;;
60257;SDS011;46115;44.484;11.314;2023-11-18T03:06:08;2.00;;;1.42;;
60257;SDS011;46115;44.484;11.314;2023-11-18T03:10:12;2.97;;;1.40;;
60257;SDS011;46115;44.484;11.314;2023-11-18T03:14:21;2.28;;;1.42;;
60257;SDS011;46115;44.484;11.314;2023-11-18T03:18:25;4.35;;;1.50;;
60257;SDS011;46115;44.484;11.314;2023-11-18T03:22:28;2.35;;;1.35;;
60257;SDS011;46115;44.484;11.314;2023-11-18T03:26:30;3.35;;;1.40;;
60257;SDS011;46115;44.484;11.314;2023-11-18T03:30:33;2.53;;;1.30;;
60257;SDS011;46115;44.484;11.314;2023-11-18T03:34:39;2.55;;;1.55;;
60257;SDS011;46115;44.484;11.314;2023-11-18T03:38:41;2.03;;;1.30;;
60257;SDS011;46115;44.484;11.314;2023-11-18T03:46:47;3.45;;;1.30;;
60257;SDS011;46115;44.484;11.314;2023-11-18T23:06:08;8.40;;;5.03;;
60257;SDS011;46115;44.484;11.314;2023-11-18T23:10:20;7.85;;;4.90;;
60257;SDS011;46115;44.484;11.314;2023-11-18T23:14:24;7.68;;;5.15;;
60257;SDS011;46115;44.484;11.314;2023-11-18T23:18:26;9.00;;;4.88;;
60257;SDS011;46115;44.484;11.314;2023-11-18T23:22:31;7.50;;;4.90;;
60257;SDS011;46115;44.484;11.314;2023-11-18T23:26:34;7.85;;;4.95;;
60257;SDS011;46115;44.484;11.314;2023-11-18T23:30:36;8.45;;;5.05;;
60257;SDS011;46115;44.484;11.314;2023-11-18T23:38:44;9.20;;;5.10;;
60257;SDS011;46115;44.484;11.314;2023-11-18T23:42:47;7.18;;;4.95;;
60257;SDS011;46115;44.484;11.314;2023-11-18T23:50:52;9.75;;;5.40;;
60257;SDS011;46115;44.484;11.314;2023-11-18T23:58:57;9.73;;;5.28;;
